Blue Oak Ranch Reserve, California Weather observations

Data are for 10 minute period ending at time listed.
 Day   Time   Solar   Ave.   Ave.  Ave.  Vector  Max.   Baro.   Total    
  of    of     Rad.   Air    Rel.  Wind   Wind   Wind  Press.  Precip.   
Year   Day            Temp.  Hum.  Speed  Dir.   Gust                    
2017   (PST)  Kw/m2    F      %     mph   deg.    mph    mb.     in.     
-------------------------------------------------------------------------
  87    4:50   0.00   44.2    70    3.0   357    10.1   953.5    0.00 
  87    5:00   0.00   46.8    60    4.8    36     9.8   953.6    0.00 
  87    5:10   0.00   45.7    68    4.6   291     9.4   953.9    0.00 
  87    5:20   0.00   43.6    82    3.7   280     8.3   954.1    0.00 
  87    5:30   0.00   42.7    82    2.3   276     5.9   954.2    0.00 
  87    5:40   0.00   41.6    85    1.1   134     2.6   954.4    0.00 
  87    5:50   0.00   40.9    86    0.9    57     2.7   954.3    0.00 
  87    6:00   0.01   39.8    87    0.9    59     3.1   954.2    0.00 
  87    6:10   0.01   39.5    89    0.2    47     2.0   954.3    0.00 
  87    6:20   0.02   39.1    90    1.6   294     4.0   954.4    0.00 
  87    6:30   0.03   39.3    90    5.7   295     8.4   954.5    0.00 
  87    6:40   0.03   41.0    88    5.3   286     7.8   954.5    0.00 
  87    6:50   0.04   42.3    85    4.2   299     6.1   954.7    0.00 
  87    7:00   0.11   45.5    72    4.2   301     7.6   954.8    0.00 
  87    7:10   0.18   47.8    68    3.9   290     5.6   954.8    0.00 
  87    7:20   0.21   50.2    63    5.5   292     9.4   954.8    0.00 
  87    7:30   0.24   51.1    60    6.8   296     9.9   954.9    0.00 
  87    7:40   0.28   51.7    59    5.8   292     9.2   954.8    0.00 
  87    7:50   0.31   52.6    61    6.1   282     8.7   954.6    0.00 
  87    8:00   0.35   54.1    56    4.5   283     7.5   954.6    0.00 
  87    8:10   0.38   54.7    52    5.2   293     9.1   954.6    0.00 
  87    8:20   0.40   54.6    50    6.6   304    14.1   954.5    0.00 
  87    8:30   0.45   54.1    52    8.2   291    13.7   954.4    0.00 
  87    8:40   0.48   55.0    51    8.2   287    13.2   954.2    0.00 
  87    8:50   0.51   55.2    51    9.7   287    15.0   954.1    0.00 
  87    9:00   0.54   54.8    53   12.1   287    16.5   954.0    0.00 
  87    9:10   0.57   55.1    53   10.1   290    17.9   954.0    0.00 
  87    9:20   0.60   55.9    51   10.4   284    15.2   954.1    0.00 
  87    9:30   0.63   56.3    50   11.0   285    20.6   954.2    0.00 
  87    9:40   0.66   56.6    52   10.8   282    15.3   954.3    0.00 
  87    9:50   0.68   56.4    53   11.9   287    18.3   954.3    0.00 
  87   10:00   0.71   56.6    52   11.5   290    18.1   954.3    0.00 
  87   10:10   0.73   56.6    52    8.5   292    14.2   954.3    0.00 
  87   10:20   0.75   57.2    52   10.3   287    15.6   954.3    0.00 
  87   10:30   0.77   58.0    48   10.7   294    18.9   954.2    0.00 
  87   10:40   0.79   57.4    44    8.7   326    16.0   954.3    0.00 
  87   10:50   0.80   58.0    44    8.6   313    18.3   954.1    0.00 
  87   11:00   0.81   58.2    44   10.6   310    20.9   954.0    0.00 
  87   11:10   0.83   58.5    43   12.4   308    27.7   953.8    0.00 
  87   11:20   0.84   58.6    43   10.7   309    19.1   953.9    0.00 
  87   11:30   0.85   59.2    46   11.0   298    19.1   954.0    0.00 
  87   11:40   0.86   59.4    42    9.8   323    24.5   954.0    0.00 
  87   11:50   0.87   60.0    41    7.7   322    19.0   953.9    0.00 
  87   12:00   0.88   60.4    39   10.0   308    23.7   953.8    0.00 
  87   12:10   0.88   60.9    39   12.8   302    24.5   953.7    0.00 
  87   12:20   0.88   61.0    40   12.1   310    25.8   953.7    0.00 
  87   12:30   0.88   61.0    40   10.0   316    24.3   953.6    0.00 
  87   12:40   0.87   61.8    40   11.4   302    25.6   953.4    0.00 
  87   12:50   0.86   62.2    40    8.9   312    21.5   953.4    0.00 
  87   13:00   0.83   62.2    40   14.8   294    25.6   953.2    0.00 
  87   13:10   0.85   62.5    40   10.8   296    20.0   953.3    0.00 
  87   13:20   0.84   62.5    40   11.2   299    19.8   953.4    0.00 
  87   13:30   0.83   62.3    39   10.9   318    22.2   953.5    0.00 
  87   13:40   0.82   62.8    40   11.5   313    27.3   953.5    0.00 
  87   13:50   0.81   63.3    41    6.2   306    14.0   953.5    0.00 
  87   14:00   0.79   64.0    40    6.5   326    21.0   953.5    0.00 
  87   14:10   0.77   64.0    39   10.1   314    20.7   953.5    0.00 
  87   14:20   0.75   63.6    39   10.9   312    20.5   953.5    0.00 
  87   14:30   0.73   63.7    38    9.7   338    21.7   953.6    0.00 
  87   14:40   0.71   64.6    37    5.5   337    16.1   953.5    0.00 
  87   14:50   0.69   64.4    34    7.7   336    17.4   953.5    0.00 
  87   15:00   0.66   64.8    34    6.1   349    19.1   953.4    0.00 
  87   15:10   0.63   64.6    35    4.8   352    11.5   953.3    0.00 
  87   15:20   0.60   65.2    35    6.5   359    15.4   953.3    0.00 
  87   15:30   0.57   64.8    36    6.5   354    13.4   953.3    0.00 
  87   15:40   0.54   64.5    37    6.9     6    18.6   953.3    0.00 
  87   15:50   0.51   65.2    37    2.7   346    10.9   953.3    0.00 
  87   16:00   0.48   64.8    37    6.5   358    19.3   953.2    0.00 
  87   16:10   0.45   65.3    36    3.5    19    11.7   953.3    0.00 
  87   16:20   0.41   64.4    37    6.7     4    15.9   953.3    0.00 
  87   16:30   0.38   64.2    37    5.8   352    13.6   953.1    0.00 
  87   16:40   0.34   65.0    37    3.7   281     8.7   953.0    0.00 
  87   16:50   0.31   64.5    37    6.6   341    14.3   953.0    0.00 
  87   17:00   0.27   63.9    38    6.2   345    17.0   953.0    0.00 
  87   17:10   0.24   63.7    38    6.9   347    14.8   953.0    0.00 
  87   17:20   0.20   63.5    38    5.4   338    12.7   952.9    0.00 
  87   17:30   0.17   63.5    38    5.5   345    10.2   952.9    0.00 
  87   17:40   0.14   62.9    38    3.7   356    12.3   952.9    0.00 
  87   17:50   0.11   63.0    38    3.9   352     8.9   952.8    0.00 
  87   18:00   0.07   62.4    38    3.9   330    13.7   952.8    0.00 
  87   18:10   0.04   61.6    38    3.3   360     6.5   952.8    0.00 
  87   18:20   0.01   60.4    39    2.7     8     6.6   952.7    0.00 
  87   18:30   0.01   59.4    41    2.4   356     7.5   952.7    0.00 
  87   18:40   0.00   58.2    43    2.1   316     6.4   952.9    0.00 
  87   18:50   0.00   58.1    42    3.1   318     6.4   953.1    0.00 
  87   19:00   0.00   56.8    51    2.4   254     4.5   953.3    0.00 
  87   19:10   0.00   54.7    60    1.2   262     3.6   953.4    0.00 
  87   19:20   0.00   51.7    64    1.9    77     3.1   953.5    0.00 
  87   19:30   0.00   51.2    65    1.7    62     3.3   953.7    0.00 
  87   19:40   0.00   50.1    69    1.6    51     3.7   954.0    0.00 
  87   19:50   0.00   49.4    72    1.8    50     3.5   954.0    0.00 
  87   20:00   0.00   48.9    73    0.9    60     2.9   954.1    0.00 
  87   20:10   0.00   48.5    74    0.9     1     3.1   954.3    0.00 
  87   20:20   0.00   48.2    74    0.5    28     2.7   954.3    0.00 
  87   20:30   0.00   48.0    74    0.1   340     0.9   954.5    0.00 
  87   20:40   0.00   47.5    75    0.4    68     2.2   954.6    0.00 
  87   20:50   0.00   47.2    74    0.4    32     1.5   954.7    0.00 
  87   21:00   0.00   47.0    75    0.9    34     2.5   954.8    0.00 
  87   21:10   0.00   47.3    73    1.7    34     3.2   954.6    0.00 
  87   21:20   0.00   47.4    73    1.5    28     3.2   954.5    0.00 
  87   21:30   0.00   47.6    72    2.2    41     4.1   954.5    0.00 
  87   21:40   0.00   48.3    69    2.1    54     3.3   954.4    0.00 
  87   21:50   0.00   48.6    69    1.4    18     3.1   954.5    0.00 
  87   22:00   0.00   48.1    70    1.3    17     2.8   954.5    0.00 
  87   22:10   0.00   47.4    73    0.6    47     1.8   954.6    0.00 
  87   22:20   0.00   47.0    74    0.8    55     2.5   954.7    0.00 
  87   22:30   0.00   47.3    74    0.3    27     2.3   954.8    0.00 
  87   22:40   0.00   47.2    75    0.8    41     2.3   954.9    0.00 
  87   22:50   0.00   46.8    76    0.6    24     1.5   954.9    0.00 
  87   23:00   0.00   46.8    75    0.2    44     1.8   954.8    0.00 
  87   23:10   0.00   46.7    76    0.4    17     1.4   954.8    0.00 
  87   23:20   0.00   46.3    76    0.6   294     2.4   954.8    0.00 
  87   23:30   0.00   46.6    76    0.2    23     1.8   954.7    0.00 
  87   23:40   0.00   46.5    75    0.2   295     1.2   954.7    0.00 
  87   23:50   0.00   46.7    75    0.8    29     2.0   954.7    0.00 
  88    0:00   0.00   47.0    73    0.7    18     2.3   954.6    0.00 
  88    0:10   0.00   47.2    72    1.7   338     3.4   954.6    0.00 
  88    0:20   0.00   51.1    59    3.2   335     7.5   954.6    0.00 
  88    0:30   0.00   54.6    52    3.6   358     7.1   954.5    0.00 
  88    0:40   0.00   56.9    47    3.9   352     7.2   954.5    0.00 
  88    0:50   0.00   57.1    47    3.9   329     8.0   954.4    0.00 
  88    1:00   0.00   57.2    46    3.9   349     9.4   954.3    0.00 
  88    1:10   0.00   57.4    45    4.6   352     9.3   954.1    0.00 
  88    1:20   0.00   58.0    45    5.3   336    12.0   954.0    0.00 
  88    1:30   0.00   56.9    47    3.3   321     6.6   953.9    0.00 
  88    1:40   0.00   55.4    50    2.2   310     5.1   953.8    0.00 
  88    1:50   0.00   54.6    51    2.7   311     5.6   953.7    0.00 
  88    2:00   0.00   53.3    55    2.7   303     4.9   953.7    0.00 
  88    2:10   0.00   51.0    60    1.8   324     4.4   953.6    0.00 
  88    2:20   0.00   49.7    63    1.6   327     3.7   953.6    0.00 
  88    2:30   0.00   49.5    63    1.0    54     2.9   953.6    0.00 
  88    2:40   0.00   48.6    66    1.2    41     3.4   953.7    0.00 
  88    2:50   0.00   47.2    70    1.5    57     2.8   953.6    0.00 
  88    3:00   0.00   47.0    70    0.9    43     2.7   953.5    0.00 
  88    3:10   0.00   46.6    73    0.9    29     2.3   953.4    0.00 
  88    3:20   0.00   46.0    74    0.8   320     2.1   953.4    0.00 
  88    3:30   0.00   46.1    73    0.2   178     1.5   953.4    0.00 
  88    3:40   0.00   45.7    75    1.6    75     3.9   953.4    0.00 
  88    3:50   0.00   45.4    76    1.3   301     3.4   953.5    0.00 
  88    4:00   0.00   45.4    77    0.4   303     2.0   953.5    0.00 
  88    4:10   0.00   45.2    77    2.6   334     7.3   953.6    0.00 
  88    4:20   0.00   44.7    78    1.2   151     4.3   953.7    0.00 
  88    4:30   0.00   43.8    81    1.6    77     2.5   953.6    0.00 
  88    4:40   0.00   45.0    79    1.3   287     3.4   953.6    0.00 

Return to Blue Oak Ranch Reserve graphs page.


Western Regional Climate Center,wrcc@dri.edu